Time;durP1;ratioP1;P1;durP2;ratioP2;P2;SDS_P1;SDS_P2;PMS_P1;PMS_P2;Temp;Humidity;BMP_temperature;BMP_pressure;BME280_temperature;BME280_humidity;BME280_pressure;Samples;Min_cycle;Max_cycle;Signal;HPM_P1;HPM_P2
2021/12/29 00:02:18;;;;;;;15.35;8.05;;;1.30;99.90;;;;;;5053958;28;20036;-77
2021/12/29 00:04:44;;;;;;;12.45;7.38;;;1.30;99.90;;;;;;5053830;28;20025;-77
2021/12/29 00:07:10;;;;;;;12.57;6.78;;;1.30;99.90;;;;;;5063422;28;20031;-77
2021/12/29 00:09:39;;;;;;;13.20;7.13;;;1.30;99.90;;;;;;5073795;28;20460;-78
2021/12/29 00:12:07;;;;;;;12.02;7.35;;;1.30;99.90;;;;;;5073844;28;20044;-77
2021/12/29 00:14:33;;;;;;;13.80;7.95;;;1.30;99.90;;;;;;5074023;28;20064;-78
2021/12/29 00:16:59;;;;;;;13.10;7.43;;;1.30;99.90;;;;;;5074014;28;20103;-77
2021/12/29 00:19:25;;;;;;;14.55;8.85;;;1.30;99.90;;;;;;5074469;28;20444;-77
2021/12/29 00:21:51;;;;;;;13.93;9.00;;;1.30;99.90;;;;;;5074092;28;20024;-77
2021/12/29 00:24:17;;;;;;;14.07;8.82;;;1.30;99.90;;;;;;5073850;28;20096;-77
2021/12/29 00:26:43;;;;;;;14.55;8.45;;;1.30;99.90;;;;;;5074167;28;20020;-77
2021/12/29 00:29:09;;;;;;;13.80;8.27;;;1.30;99.90;;;;;;5075358;28;20036;-77
2021/12/29 00:31:34;;;;;;;14.50;8.43;;;1.40;99.90;;;;;;5077276;28;20020;-78
2021/12/29 00:34:00;;;;;;;13.23;8.23;;;1.40;99.90;;;;;;5078447;28;20036;-77
2021/12/29 00:36:26;;;;;;;13.60;7.85;;;1.40;99.90;;;;;;5078545;28;20028;-78
2021/12/29 00:38:53;;;;;;;14.45;7.95;;;1.40;99.90;;;;;;5076795;28;20025;-78
2021/12/29 00:41:19;;;;;;;16.48;9.57;;;1.40;99.90;;;;;;5076945;28;20108;-77
2021/12/29 00:43:46;;;;;;;13.27;8.68;;;1.40;99.90;;;;;;5078109;28;20028;-78
2021/12/29 00:46:13;;;;;;;14.20;9.13;;;1.40;99.90;;;;;;5076957;28;20553;-77
2021/12/29 00:48:42;;;;;;;14.63;7.72;;;1.40;99.90;;;;;;5077696;28;20039;-77
2021/12/29 00:51:10;;;;;;;12.95;7.95;;;1.40;99.90;;;;;;5078085;28;20052;-77
2021/12/29 00:53:36;;;;;;;14.10;9.18;;;1.40;99.90;;;;;;5077298;28;20395;-77
2021/12/29 00:56:03;;;;;;;15.82;8.05;;;1.40;99.90;;;;;;5075673;28;20547;-77
2021/12/29 00:58:31;;;;;;;14.38;8.43;;;1.40;99.90;;;;;;5077644;28;20507;-77
2021/12/29 01:00:58;;;;;;;14.18;8.25;;;1.40;99.90;;;;;;5077387;28;20060;-77
2021/12/29 01:03:25;;;;;;;13.10;7.53;;;1.40;99.90;;;;;;5069322;28;20024;-76
2021/12/29 01:05:50;;;;;;;12.60;8.23;;;1.40;99.90;;;;;;5056299;28;20045;-77
2021/12/29 01:08:16;;;;;;;11.43;7.40;;;1.40;99.90;;;;;;5056373;28;20060;-76
2021/12/29 01:10:43;;;;;;;13.20;8.10;;;1.30;99.90;;;;;;5056206;28;20496;-77
2021/12/29 01:13:11;;;;;;;13.82;7.70;;;1.30;99.90;;;;;;5056781;28;20029;-79
2021/12/29 01:15:58;;;;;;;11.80;7.65;;;1.30;99.90;;;;;;5055007;28;20017;-77
2021/12/29 01:18:26;;;;;;;13.63;7.43;;;1.30;99.90;;;;;;5057243;28;20077;-77
2021/12/29 01:20:52;;;;;;;14.20;8.65;;;1.40;99.90;;;;;;5069973;28;20028;-78
2021/12/29 01:23:18;;;;;;;13.15;8.32;;;1.30;99.90;;;;;;5078043;28;20051;-78
2021/12/29 01:25:44;;;;;;;13.52;7.95;;;1.30;99.90;;;;;;5077559;28;20020;-78
2021/12/29 01:28:10;;;;;;;14.00;8.57;;;1.30;99.90;;;;;;5077410;28;20542;-78
2021/12/29 01:30:35;;;;;;;12.98;8.02;;;1.30;99.90;;;;;;5077722;28;20392;-78
2021/12/29 01:33:05;;;;;;;13.70;8.00;;;1.30;99.90;;;;;;5077528;28;20040;-78
2021/12/29 01:35:32;;;;;;;13.73;8.27;;;1.30;99.90;;;;;;5078034;28;20044;-78
2021/12/29 01:37:59;;;;;;;12.38;7.72;;;1.30;99.90;;;;;;5077798;28;20035;-78
2021/12/29 01:40:26;;;;;;;13.68;7.50;;;1.30;99.90;;;;;;5076821;28;20084;-78
2021/12/29 01:42:52;;;;;;;17.45;9.73;;;1.30;99.90;;;;;;5077372;28;20540;-78
2021/12/29 01:45:18;;;;;;;15.10;8.75;;;1.30;99.90;;;;;;5077177;28;20055;-78
2021/12/29 01:47:43;;;;;;;12.30;7.68;;;1.30;99.90;;;;;;5075823;28;20055;-78
2021/12/29 01:50:11;;;;;;;12.90;7.78;;;1.30;99.90;;;;;;5076582;28;20136;-78
2021/12/29 01:52:39;;;;;;;12.95;8.18;;;1.30;99.90;;;;;;5077002;28;20031;-78
2021/12/29 01:55:08;;;;;;;13.45;7.90;;;1.30;99.90;;;;;;5075026;28;20491;-78
2021/12/29 01:57:34;;;;;;;10.60;7.38;;;1.30;99.90;;;;;;5076044;28;20123;-78
2021/12/29 02:00:08;;;;;;;10.23;6.45;;;1.30;99.90;;;;;;5074552;28;20056;-78
2021/12/29 02:02:33;;;;;;;10.88;6.72;;;1.30;99.90;;;;;;5077447;28;20104;-79
2021/12/29 02:04:59;;;;;;;8.90;6.03;;;1.30;99.90;;;;;;5076990;28;20052;-78
2021/12/29 02:07:25;;;;;;;10.98;6.97;;;1.40;99.90;;;;;;5077610;28;20060;-78
2021/12/29 02:09:51;;;;;;;9.60;6.53;;;1.40;99.90;;;;;;5077070;28;20078;-78
2021/12/29 02:12:17;;;;;;;14.18;7.70;;;1.40;99.90;;;;;;5077454;28;20017;-78
2021/12/29 02:14:43;;;;;;;10.57;7.50;;;1.50;99.90;;;;;;5075594;28;20439;-79
2021/12/29 02:17:09;;;;;;;12.68;7.40;;;1.50;99.90;;;;;;5076894;28;20033;-79
2021/12/29 02:19:42;;;;;;;11.63;8.07;;;1.50;99.90;;;;;;5075302;28;20046;-79
2021/12/29 02:22:14;;;;;;;12.00;7.93;;;1.50;99.90;;;;;;5075245;28;20028;-79
2021/12/29 02:24:43;;;;;;;12.32;7.55;;;1.40;99.90;;;;;;5076466;28;20099;-79
2021/12/29 02:27:11;;;;;;;9.52;6.53;;;1.40;99.90;;;;;;5076350;28;20020;-79
2021/12/29 02:29:40;;;;;;;12.38;7.57;;;1.40;99.90;;;;;;5075888;28;20074;-79
2021/12/29 02:32:06;;;;;;;12.20;8.05;;;1.40;99.90;;;;;;5075792;28;20024;-79
2021/12/29 02:34:33;;;;;;;13.63;8.55;;;1.30;99.90;;;;;;5075967;28;20025;-79
2021/12/29 02:37:01;;;;;;;12.43;8.38;;;1.30;99.90;;;;;;5075654;28;20029;-79
2021/12/29 02:39:30;;;;;;;12.85;7.72;;;1.30;99.90;;;;;;5070833;28;20021;-79
2021/12/29 02:41:57;;;;;;;13.50;7.97;;;1.30;99.90;;;;;;5053760;28;20028;-79
2021/12/29 02:44:27;;;;;;;11.23;7.05;;;1.30;99.90;;;;;;5055998;28;20025;-81
2021/12/29 02:46:56;;;;;;;9.25;6.15;;;1.30;99.90;;;;;;5055949;28;20025;-81
2021/12/29 02:49:23;;;;;;;13.90;8.57;;;1.30;99.90;;;;;;5055759;28;20033;-81
2021/12/29 02:51:48;;;;;;;12.18;8.10;;;1.30;99.90;;;;;;5055898;28;20028;-81
2021/12/29 02:54:16;;;;;;;12.90;7.88;;;1.30;99.90;;;;;;5054728;28;20059;-81
2021/12/29 02:56:43;;;;;;;10.88;7.47;;;1.30;99.90;;;;;;5070015;28;20033;-80
2021/12/29 02:59:09;;;;;;;13.63;8.23;;;1.30;99.90;;;;;;5075526;28;20035;-80
2021/12/29 03:01:35;;;;;;;12.65;7.72;;;1.30;99.90;;;;;;5074016;28;20414;-80
2021/12/29 03:04:05;;;;;;;11.32;6.28;;;1.30;99.90;;;;;;5073971;28;20115;-80
2021/12/29 03:06:31;;;;;;;10.80;6.70;;;1.40;99.90;;;;;;5072340;28;20025;-79
2021/12/29 03:08:57;;;;;;;11.38;7.35;;;1.30;99.90;;;;;;5074607;28;20372;-80
2021/12/29 03:11:23;;;;;;;12.15;7.45;;;1.30;99.90;;;;;;5074121;28;20032;-80
2021/12/29 03:13:49;;;;;;;11.27;6.93;;;1.30;99.90;;;;;;5073699;28;20024;-80
2021/12/29 03:16:14;;;;;;;11.90;7.47;;;1.30;99.90;;;;;;5072559;28;20029;-80
2021/12/29 03:18:41;;;;;;;11.02;7.28;;;1.30;99.90;;;;;;5073471;28;20044;-79
2021/12/29 03:21:08;;;;;;;11.50;7.30;;;1.30;99.90;;;;;;5072336;28;20021;-80
2021/12/29 03:23:34;;;;;;;9.32;6.45;;;1.30;99.90;;;;;;5073639;28;20023;-80
2021/12/29 03:26:00;;;;;;;9.85;7.00;;;1.30;99.90;;;;;;5072338;28;20020;-80
2021/12/29 03:28:26;;;;;;;12.65;7.05;;;1.30;99.90;;;;;;5073611;28;20012;-80
2021/12/29 03:30:54;;;;;;;10.75;6.93;;;1.30;99.90;;;;;;5073866;28;20100;-80
2021/12/29 03:33:21;;;;;;;12.77;8.10;;;1.30;99.90;;;;;;5073580;28;20107;-80
2021/12/29 03:35:53;;;;;;;12.40;7.82;;;1.30;99.90;;;;;;5061445;28;20033;-80
2021/12/29 03:38:22;;;;;;;12.02;7.57;;;1.40;99.90;;;;;;5052200;28;20017;-80
2021/12/29 03:40:49;;;;;;;12.32;7.55;;;1.40;99.90;;;;;;5053369;28;20036;-80
2021/12/29 03:43:15;;;;;;;10.32;7.35;;;1.30;99.90;;;;;;5053473;28;20025;-80
2021/12/29 03:45:44;;;;;;;11.13;7.78;;;1.30;99.90;;;;;;5053679;28;20024;-80
2021/12/29 03:48:12;;;;;;;13.27;7.60;;;1.30;99.90;;;;;;5052238;28;20022;-81
2021/12/29 03:50:38;;;;;;;12.23;7.28;;;1.30;99.90;;;;;;5056764;28;20017;-81
2021/12/29 03:53:05;;;;;;;14.35;8.45;;;1.30;99.90;;;;;;5054357;28;20024;-81
2021/12/29 03:55:31;;;;;;;11.77;7.32;;;1.30;99.90;;;;;;5053828;28;20017;-81
2021/12/29 03:57:57;;;;;;;11.63;7.53;;;1.30;99.90;;;;;;5052882;28;20423;-82
2021/12/29 04:00:23;;;;;;;11.68;7.65;;;1.30;99.90;;;;;;5054168;28;20100;-81
2021/12/29 04:02:49;;;;;;;11.55;7.38;;;1.30;99.90;;;;;;5054400;28;20508;-81
2021/12/29 04:05:21;;;;;;;9.63;6.63;;;1.30;99.90;;;;;;5057168;28;20029;-82
2021/12/29 04:07:48;;;;;;;11.65;7.82;;;1.30;99.90;;;;;;5059565;28;20017;-81
2021/12/29 04:10:14;;;;;;;10.40;7.00;;;1.30;99.90;;;;;;5056097;28;20022;-81
2021/12/29 04:12:41;;;;;;;14.38;8.68;;;1.30;99.90;;;;;;5057407;28;20025;-81
2021/12/29 04:15:09;;;;;;;13.85;8.70;;;1.30;99.90;;;;;;5056357;28;20028;-82
2021/12/29 04:17:37;;;;;;;12.75;8.05;;;1.30;99.90;;;;;;5058250;28;20480;-82
2021/12/29 04:22:56;;;;;;;13.95;8.48;;;1.30;99.90;;;;;;5061226;28;20507;-81
2021/12/29 04:25:24;;;;;;;14.30;8.43;;;1.30;99.90;;;;;;5078850;28;20025;-81
2021/12/29 04:27:54;;;;;;;16.90;10.75;;;1.30;99.90;;;;;;5078567;28;20016;-82
2021/12/29 04:30:21;;;;;;;18.08;10.73;;;1.30;99.90;;;;;;5077743;28;20023;-82
2021/12/29 04:32:47;;;;;;;15.52;9.57;;;1.30;99.90;;;;;;5078231;28;20029;-82
2021/12/29 04:35:13;;;;;;;18.27;10.35;;;1.30;99.90;;;;;;5076324;28;20084;-82
2021/12/29 04:37:39;;;;;;;17.08;10.40;;;1.30;99.90;;;;;;5077774;28;20055;-82
2021/12/29 04:40:06;;;;;;;15.50;9.13;;;1.40;99.90;;;;;;5067383;28;20053;-82
2021/12/29 04:42:32;;;;;;;16.67;9.13;;;1.40;99.90;;;;;;5057410;28;20138;-82
2021/12/29 04:44:58;;;;;;;15.65;9.32;;;1.40;99.90;;;;;;5057267;28;20048;-82
2021/12/29 04:47:28;;;;;;;14.63;8.35;;;1.30;99.90;;;;;;5057216;28;20032;-82
2021/12/29 04:50:02;;;;;;;14.98;8.90;;;1.30;99.90;;;;;;5056987;28;20048;-82
2021/12/29 04:52:30;;;;;;;12.38;8.15;;;1.30;99.90;;;;;;5057292;28;20025;-82
2021/12/29 04:54:57;;;;;;;11.88;7.05;;;1.40;99.90;;;;;;5055494;28;20392;-82
2021/12/29 04:57:23;;;;;;;11.35;7.07;;;1.40;99.90;;;;;;5073983;28;20468;-82
2021/12/29 04:59:49;;;;;;;13.32;7.07;;;1.40;99.90;;;;;;5076852;28;20063;-82
2021/12/29 05:02:15;;;;;;;13.25;7.88;;;1.40;99.90;;;;;;5075209;28;20059;-82
2021/12/29 05:04:56;;;;;;;12.23;8.57;;;1.30;99.90;;;;;;5076413;28;20031;-82
2021/12/29 05:10:06;;;;;;;13.63;8.70;;;1.30;99.90;;;;;;5076671;28;20055;-82
2021/12/29 05:12:32;;;;;;;14.48;8.63;;;1.30;99.90;;;;;;5061401;28;20053;-82
2021/12/29 05:14:57;;;;;;;12.82;8.50;;;1.30;99.90;;;;;;5054106;28;20488;-82
2021/12/29 05:17:23;;;;;;;13.55;7.70;;;1.30;99.90;;;;;;5055619;28;20384;-82
2021/12/29 05:19:49;;;;;;;12.93;8.02;;;1.40;99.90;;;;;;5054875;28;20044;-83
2021/12/29 05:22:15;;;;;;;16.45;9.63;;;1.30;99.90;;;;;;5056004;28;20473;-82
2021/12/29 05:24:41;;;;;;;14.70;9.60;;;1.30;99.90;;;;;;5056251;28;20021;-82
2021/12/29 05:27:06;;;;;;;14.38;9.30;;;1.30;99.90;;;;;;5056180;28;20025;-83
2021/12/29 05:29:32;;;;;;;46.03;21.35;;;1.40;99.90;;;;;;5058221;28;20029;-83
2021/12/29 05:31:58;;;;;;;29.10;15.07;;;1.40;99.90;;;;;;5069235;28;20040;-83
2021/12/29 05:34:24;;;;;;;26.02;14.25;;;1.40;99.90;;;;;;5078665;28;20029;-82
2021/12/29 05:36:50;;;;;;;27.73;14.95;;;1.40;99.90;;;;;;5078565;28;20035;-83
2021/12/29 05:39:15;;;;;;;24.13;13.55;;;1.40;99.90;;;;;;5076903;28;20034;-83
2021/12/29 05:41:41;;;;;;;24.25;13.40;;;1.40;99.90;;;;;;5077916;28;20456;-83
2021/12/29 05:44:07;;;;;;;28.05;14.05;;;1.40;99.90;;;;;;5074062;28;20124;-83
2021/12/29 05:46:33;;;;;;;26.50;14.20;;;1.40;99.90;;;;;;5058214;28;20044;-83
2021/12/29 05:48:58;;;;;;;42.85;19.77;;;1.40;99.90;;;;;;5057641;28;20044;-83
2021/12/29 05:51:24;;;;;;;58.97;25.52;;;1.40;99.90;;;;;;5056104;28;20028;-83
2021/12/29 05:53:50;;;;;;;53.40;28.90;;;1.40;99.90;;;;;;5056167;28;20120;-83
2021/12/29 05:56:16;;;;;;;64.72;31.23;;;1.40;99.90;;;;;;5054972;28;20029;-83
2021/12/29 05:58:42;;;;;;;45.92;24.23;;;1.40;99.90;;;;;;5054414;28;20025;-83
2021/12/29 06:01:09;;;;;;;33.55;19.38;;;1.40;99.90;;;;;;5054113;28;20510;-83
2021/12/29 06:03:36;;;;;;;34.00;19.05;;;1.40;99.90;;;;;;5054390;28;20025;-83
2021/12/29 06:06:02;;;;;;;30.52;16.88;;;1.40;99.90;;;;;;5054123;28;20566;-83
2021/12/29 06:08:28;;;;;;;22.45;13.73;;;1.40;99.90;;;;;;5055763;28;20071;-83
2021/12/29 06:10:53;;;;;;;20.70;12.25;;;1.50;99.90;;;;;;5053907;28;20020;-83
2021/12/29 06:13:19;;;;;;;17.73;11.23;;;1.50;99.90;;;;;;5053918;28;20034;-83
2021/12/29 06:15:45;;;;;;;14.77;10.25;;;1.50;99.90;;;;;;5055338;28;20027;-84
2021/12/29 06:18:11;;;;;;;18.08;10.68;;;1.50;99.90;;;;;;5055050;28;20017;-83
2021/12/29 06:20:38;;;;;;;21.40;13.00;;;1.50;99.90;;;;;;5055060;28;20048;-83
2021/12/29 06:23:06;;;;;;;18.63;12.00;;;1.40;99.90;;;;;;5053975;28;20025;-82
2021/12/29 06:25:33;;;;;;;23.40;14.52;;;1.40;99.90;;;;;;5054209;28;20025;-82
2021/12/29 06:27:59;;;;;;;26.50;15.18;;;1.40;99.90;;;;;;5054138;28;20025;-83
2021/12/29 06:30:25;;;;;;;28.98;15.10;;;1.40;99.90;;;;;;5055005;28;20021;-83
2021/12/29 06:32:51;;;;;;;28.95;15.98;;;1.40;99.90;;;;;;5057876;28;20025;-83
2021/12/29 06:35:16;;;;;;;24.08;13.40;;;1.40;99.90;;;;;;5074823;28;20024;-83
2021/12/29 06:37:43;;;;;;;20.27;12.77;;;1.40;99.90;;;;;;5075570;28;20476;-83
2021/12/29 06:40:10;;;;;;;18.38;12.32;;;1.40;99.90;;;;;;5076423;28;20028;-83
2021/12/29 06:42:36;;;;;;;20.55;13.43;;;1.50;99.90;;;;;;5075663;28;20054;-83
2021/12/29 06:45:03;;;;;;;21.85;12.70;;;1.40;99.90;;;;;;5076385;28;20062;-84
2021/12/29 06:47:29;;;;;;;20.33;12.35;;;1.40;99.90;;;;;;5074818;28;20020;-86
2021/12/29 06:49:54;;;;;;;18.38;11.27;;;1.40;99.90;;;;;;5073374;28;20055;-85
2021/12/29 06:52:20;;;;;;;16.13;10.18;;;1.40;99.90;;;;;;5054753;28;20036;-86
2021/12/29 06:54:46;;;;;;;25.42;14.38;;;1.40;99.90;;;;;;5053182;28;20032;-86
2021/12/29 06:57:12;;;;;;;26.90;15.77;;;1.40;99.90;;;;;;5053726;28;20021;-85
2021/12/29 06:59:38;;;;;;;27.08;13.75;;;1.40;99.90;;;;;;5053117;28;20024;-85
2021/12/29 07:02:04;;;;;;;21.52;12.15;;;1.40;99.90;;;;;;5052789;28;20029;-88
2021/12/29 07:04:30;;;;;;;18.50;10.70;;;1.40;99.90;;;;;;5052692;28;20045;-87
2021/12/29 07:06:56;;;;;;;22.48;12.50;;;1.40;99.90;;;;;;5065358;28;20029;-87
2021/12/29 07:09:23;;;;;;;26.20;13.32;;;1.40;99.90;;;;;;5072692;28;20081;-87
2021/12/29 07:11:49;;;;;;;19.55;10.88;;;1.40;99.90;;;;;;5072681;28;20463;-87
2021/12/29 07:14:14;;;;;;;18.88;9.93;;;1.40;99.90;;;;;;5072483;28;20048;-87
2021/12/29 07:16:44;;;;;;;16.55;10.27;;;1.40;99.90;;;;;;5072553;28;20392;-87
2021/12/29 07:19:10;;;;;;;15.68;9.82;;;1.40;99.90;;;;;;5072499;28;20074;-87
2021/12/29 07:21:35;;;;;;;20.42;11.18;;;1.40;99.90;;;;;;5073908;28;20086;-85
2021/12/29 07:24:01;;;;;;;17.58;10.68;;;1.40;99.90;;;;;;5052373;28;20029;-86
2021/12/29 07:26:27;;;;;;;22.52;12.00;;;1.40;99.90;;;;;;5052404;28;20020;-85
2021/12/29 07:28:53;;;;;;;16.95;11.25;;;1.40;99.90;;;;;;5052380;28;20171;-84
2021/12/29 07:31:20;;;;;;;18.58;10.60;;;1.40;99.90;;;;;;5052445;28;20035;-84
2021/12/29 07:33:46;;;;;;;16.77;10.30;;;1.40;99.90;;;;;;5052166;28;20141;-83
2021/12/29 07:36:12;;;;;;;16.13;9.95;;;1.40;99.90;;;;;;5052349;28;20033;-83
2021/12/29 07:38:39;;;;;;;19.67;11.75;;;1.40;99.90;;;;;;5051492;28;20029;-83
2021/12/29 07:41:05;;;;;;;18.65;11.57;;;1.40;99.90;;;;;;5052351;28;20037;-83
2021/12/29 07:43:31;;;;;;;21.63;12.88;;;1.40;99.90;;;;;;5052300;28;20389;-83
2021/12/29 07:45:57;;;;;;;35.22;20.48;;;1.40;99.90;;;;;;5052192;28;20078;-84
2021/12/29 07:48:28;;;;;;;30.33;17.58;;;1.40;99.90;;;;;;5052034;28;20044;-84
2021/12/29 07:50:54;;;;;;;;;;;1.40;99.90;;;;;;5052664;28;20021;-84
2021/12/29 07:53:21;;;;;;;26.98;14.90;;;1.50;99.90;;;;;;5053438;28;19995;-84
2021/12/29 07:55:47;;;;;;;23.27;13.95;;;1.40;99.90;;;;;;5053300;28;20519;-84
2021/12/29 07:58:13;;;;;;;20.35;12.35;;;1.50;99.90;;;;;;5052084;28;20131;-84
2021/12/29 08:00:39;;;;;;;16.30;10.63;;;1.40;99.90;;;;;;5053460;28;20036;-84
2021/12/29 08:03:05;;;;;;;20.35;12.15;;;1.50;99.90;;;;;;5053378;28;20025;-84
2021/12/29 08:05:31;;;;;;;19.65;11.90;;;1.50;99.90;;;;;;5052593;28;20457;-84
2021/12/29 08:07:57;;;;;;;21.02;13.88;;;1.50;99.90;;;;;;5053202;28;20032;-83
2021/12/29 08:10:23;;;;;;;22.45;13.25;;;1.50;99.90;;;;;;5051855;28;20074;-84
2021/12/29 08:12:48;;;;;;;22.00;14.05;;;1.50;99.90;;;;;;5051907;28;20029;-84
2021/12/29 08:15:14;;;;;;;18.42;12.00;;;1.50;99.90;;;;;;5052319;28;20369;-84
2021/12/29 08:17:41;;;;;;;16.88;10.65;;;1.50;99.90;;;;;;5052083;28;20389;-84
2021/12/29 08:20:09;;;;;;;23.48;14.30;;;1.50;99.90;;;;;;5053603;28;20489;-83
2021/12/29 08:22:35;;;;;;;21.10;12.98;;;1.50;99.90;;;;;;5051800;28;20053;-83
2021/12/29 08:25:01;;;;;;;22.25;13.57;;;1.50;99.90;;;;;;5053010;28;20427;-85
2021/12/29 08:27:26;;;;;;;26.55;15.35;;;1.50;99.90;;;;;;5051772;28;20018;-84
2021/12/29 08:29:52;;;;;;;24.70;15.00;;;1.60;99.90;;;;;;5051714;28;20032;-85
2021/12/29 08:32:20;;;;;;;24.58;13.02;;;1.60;99.90;;;;;;5051840;28;20392;-85
2021/12/29 08:34:46;;;;;;;21.67;12.07;;;1.60;99.90;;;;;;5051625;28;20029;-85
2021/12/29 08:37:12;;;;;;;20.23;11.90;;;1.60;99.90;;;;;;5051681;28;20021;-85
2021/12/29 08:39:38;;;;;;;22.65;12.00;;;1.60;99.90;;;;;;5051746;28;20075;-85
2021/12/29 08:42:04;;;;;;;17.35;10.70;;;1.70;99.90;;;;;;5051475;28;20036;-85
2021/12/29 08:44:29;;;;;;;18.88;10.35;;;1.70;99.90;;;;;;5052980;28;20428;-84
2021/12/29 08:46:55;;;;;;;20.35;11.35;;;1.70;99.90;;;;;;5051690;28;20017;-85
2021/12/29 08:49:21;;;;;;;15.80;10.43;;;1.70;99.90;;;;;;5051737;28;20029;-84
2021/12/29 08:51:47;;;;;;;16.65;10.07;;;1.70;99.90;;;;;;5055182;28;20025;-84
2021/12/29 08:54:13;;;;;;;16.20;9.70;;;1.70;99.90;;;;;;5055288;28;20035;-84
2021/12/29 08:56:38;;;;;;;18.40;11.55;;;1.70;99.90;;;;;;5055329;28;20029;-84
2021/12/29 08:59:04;;;;;;;19.90;11.20;;;1.70;99.90;;;;;;5056700;28;20032;-84
2021/12/29 09:01:31;;;;;;;17.83;11.43;;;1.80;99.90;;;;;;5056771;28;20029;-84
2021/12/29 09:03:56;;;;;;;16.50;10.68;;;1.80;99.90;;;;;;5055047;28;20099;-84
2021/12/29 09:06:22;;;;;;;18.50;11.07;;;1.80;99.90;;;;;;5055041;28;20068;-84
2021/12/29 09:08:48;;;;;;;15.52;9.57;;;1.80;99.90;;;;;;5055126;28;20106;-84
2021/12/29 09:11:15;;;;;;;15.00;9.93;;;1.80;99.90;;;;;;5055031;28;20114;-84
2021/12/29 09:13:41;;;;;;;15.48;9.43;;;1.80;99.90;;;;;;5054928;28;20025;-84
2021/12/29 09:16:08;;;;;;;16.23;9.27;;;1.90;99.90;;;;;;5055370;28;20552;-84
2021/12/29 09:18:36;;;;;;;17.60;11.05;;;1.90;99.90;;;;;;5054813;28;20029;-84
2021/12/29 09:21:12;;;;;;;25.95;14.80;;;1.90;99.90;;;;;;5054956;28;20056;-84
2021/12/29 09:23:38;;;;;;;24.23;14.25;;;2.00;99.90;;;;;;5056973;28;20104;-84
2021/12/29 09:26:05;;;;;;;19.83;13.38;;;2.00;99.90;;;;;;5056207;28;20075;-84
2021/12/29 09:28:31;;;;;;;25.88;15.25;;;2.00;99.90;;;;;;5055596;28;20500;-84
2021/12/29 09:30:58;;;;;;;21.65;13.27;;;2.00;99.90;;;;;;5055211;28;20029;-84
2021/12/29 09:33:23;;;;;;;18.48;12.13;;;2.00;99.90;;;;;;5070968;28;20388;-84
2021/12/29 09:36:01;;;;;;;22.60;13.60;;;2.00;99.90;;;;;;5075497;28;20024;-84
2021/12/29 09:38:29;;;;;;;19.50;11.93;;;1.90;99.90;;;;;;5075594;28;20120;-84
2021/12/29 09:40:55;;;;;;;15.85;10.32;;;2.00;99.90;;;;;;5075389;28;20499;-84
2021/12/29 09:43:21;;;;;;;20.40;11.75;;;2.00;99.90;;;;;;5076615;28;20025;-84
2021/12/29 09:45:48;;;;;;;28.40;16.92;;;2.00;99.90;;;;;;5075616;28;20036;-85
2021/12/29 09:48:15;;;;;;;33.95;21.17;;;2.00;99.90;;;;;;5064768;28;20055;-84
2021/12/29 09:50:42;;;;;;;35.78;21.27;;;2.10;99.90;;;;;;5054484;28;20028;-84
2021/12/29 09:53:08;;;;;;;30.23;19.35;;;2.10;99.90;;;;;;5058701;28;20152;-84
2021/12/29 09:55:35;;;;;;;28.58;16.42;;;2.20;99.90;;;;;;5056046;28;20163;-84
2021/12/29 09:58:03;;;;;;;26.90;17.27;;;2.30;99.90;;;;;;5054433;28;20025;-84
2021/12/29 10:00:42;;;;;;;37.30;20.48;;;2.20;99.90;;;;;;5055485;28;20535;-84
2021/12/29 10:03:11;;;;;;;39.80;21.50;;;2.20;99.90;;;;;;5054570;28;20036;-84
2021/12/29 10:05:39;;;;;;;48.05;24.63;;;2.20;99.90;;;;;;5054960;28;20025;-83
2021/12/29 10:08:25;;;;;;;40.95;23.05;;;2.20;99.90;;;;;;5055760;28;20021;-83
2021/12/29 10:10:54;;;;;;;36.10;20.35;;;2.20;99.90;;;;;;5056556;28;20047;-84
2021/12/29 10:13:20;;;;;;;37.42;22.33;;;2.20;99.90;;;;;;5055694;28;20021;-84
2021/12/29 10:15:50;;;;;;;43.90;24.00;;;2.20;99.90;;;;;;5056456;28;20025;-84
2021/12/29 10:18:26;;;;;;;70.43;34.00;;;2.20;99.90;;;;;;5054404;28;20052;-83
2021/12/29 10:20:59;;;;;;;66.20;32.70;;;2.30;99.90;;;;;;5068005;28;20436;-84
2021/12/29 10:23:31;;;;;;;78.20;37.85;;;2.40;99.90;;;;;;5073659;28;20107;-83
2021/12/29 10:26:08;;;;;;;71.68;37.47;;;2.40;99.90;;;;;;5073564;28;20079;-84
2021/12/29 10:28:35;;;;;;;63.47;30.63;;;2.50;99.90;;;;;;5075348;28;20544;-83
2021/12/29 10:31:06;;;;;;;80.40;39.63;;;2.60;99.90;;;;;;5073462;28;20024;-83
2021/12/29 10:33:56;;;;;;;53.92;27.50;;;2.60;99.90;;;;;;5073500;28;20033;-83
2021/12/29 10:36:23;;;;;;;46.58;26.55;;;2.70;99.90;;;;;;5073398;28;20032;-83
2021/12/29 10:39:09;;;;;;;40.70;22.27;;;2.70;99.90;;;;;;5074590;28;20024;-83
2021/12/29 10:41:52;;;;;;;38.33;20.60;;;2.80;99.90;;;;;;5074484;28;20526;-83
2021/12/29 10:44:29;;;;;;;32.22;21.25;;;2.90;99.90;;;;;;5073150;28;20432;-83
2021/12/29 10:46:56;;;;;;;26.38;17.25;;;2.90;99.90;;;;;;5073312;28;20016;-84
2021/12/29 10:49:28;;;;;;;25.55;15.98;;;2.90;99.90;;;;;;5073730;28;20031;-84
2021/12/29 10:51:57;;;;;;;33.13;19.17;;;2.90;99.90;;;;;;5075101;28;20052;-83
2021/12/29 10:54:26;;;;;;;35.55;21.33;;;2.90;99.90;;;;;;5056711;28;20021;-83
2021/12/29 10:57:02;;;;;;;38.80;22.75;;;2.90;99.90;;;;;;5062297;28;20066;-86
2021/12/29 10:59:31;;;;;;;41.35;24.27;;;3.00;99.90;;;;;;5059246;28;20027;-85
2021/12/29 11:01:58;;;;;;;44.22;23.70;;;2.90;99.90;;;;;;5060145;28;20024;-84
2021/12/29 11:04:26;;;;;;;37.92;22.08;;;3.00;99.90;;;;;;5058127;28;20032;-84
2021/12/29 11:06:56;;;;;;;102.00;54.80;;;3.00;99.90;;;;;;5054370;28;20113;-84
2021/12/29 11:09:32;;;;;;;95.45;49.58;;;3.00;99.90;;;;;;5055228;28;20393;-84
2021/12/29 11:12:00;;;;;;;69.10;37.25;;;3.00;99.90;;;;;;5056333;28;20123;-86
2021/12/29 11:14:29;;;;;;;58.05;33.83;;;3.00;99.90;;;;;;5053396;28;20025;-84
2021/12/29 11:17:16;;;;;;;48.80;28.73;;;3.10;99.90;;;;;;5057103;28;20032;-84
2021/12/29 11:19:58;;;;;;;41.45;24.33;;;3.20;99.90;;;;;;5063010;28;20027;-86
2021/12/29 11:22:26;;;;;;;40.28;24.73;;;3.20;99.90;;;;;;5053659;28;20514;-84
2021/12/29 11:24:59;;;;;;;39.50;24.60;;;3.30;99.90;;;;;;5053790;28;20469;-84
2021/12/29 11:27:26;;;;;;;34.45;19.15;;;3.30;99.90;;;;;;5052572;28;20074;-84
2021/12/29 11:30:21;;;;;;;29.63;17.58;;;3.30;99.90;;;;;;5053922;28;20021;-84
2021/12/29 11:32:48;;;;;;;30.17;19.20;;;3.20;99.90;;;;;;5045023;28;20164;-84
2021/12/29 11:35:20;;;;;;;29.92;19.00;;;3.20;99.90;;;;;;5053518;28;20049;-84
2021/12/29 11:37:51;;;;;;;36.47;22.63;;;3.30;99.90;;;;;;5052382;28;20025;-83
2021/12/29 11:40:20;;;;;;;32.28;20.60;;;3.30;99.90;;;;;;5052360;28;20025;-84
2021/12/29 11:42:47;;;;;;;31.05;18.60;;;3.30;99.90;;;;;;5053456;28;20017;-83
2021/12/29 11:45:13;;;;;;;30.45;17.15;;;3.30;99.90;;;;;;5052156;28;20078;-84
2021/12/29 11:47:39;;;;;;;28.85;15.93;;;3.40;99.90;;;;;;5054038;28;20028;-84
2021/12/29 11:50:07;;;;;;;27.35;15.05;;;3.40;99.90;;;;;;5053370;28;20456;-84
2021/12/29 11:52:59;;;;;;;31.60;15.93;;;3.50;99.90;;;;;;5053476;28;20416;-84
2021/12/29 11:55:30;;;;;;;32.42;16.10;;;3.60;99.90;;;;;;5024735;28;20110;-84
2021/12/29 11:58:06;;;;;;;23.83;13.10;;;3.70;99.90;;;;;;5052571;28;20527;-84
2021/12/29 12:00:32;;;;;;;55.55;26.75;;;3.70;99.90;;;;;;5052065;28;20094;-84
2021/12/29 12:03:13;;;;;;;39.67;20.42;;;3.70;99.90;;;;;;5052017;28;20369;-84
2021/12/29 12:05:47;;;;;;;26.70;13.50;;;3.70;99.90;;;;;;5053761;28;20029;-82
2021/12/29 12:08:24;;;;;;;23.23;12.55;;;3.70;99.90;;;;;;5052453;28;20071;-83
2021/12/29 12:10:51;;;;;;;25.98;14.20;;;3.70;99.90;;;;;;5052316;28;20096;-83
2021/12/29 12:13:27;;;;;;;31.92;19.52;;;3.70;99.90;;;;;;5052066;28;20477;-83
2021/12/29 12:16:13;;;;;;;25.55;15.95;;;3.80;99.90;;;;;;5053388;28;20033;-83
2021/12/29 12:18:52;;;;;;;19.98;11.30;;;3.70;99.90;;;;;;5052195;28;20079;-82
2021/12/29 12:21:31;;;;;;;19.70;10.98;;;3.70;99.90;;;;;;5051918;28;20025;-82
2021/12/29 12:24:15;;;;;;;20.60;12.45;;;3.70;99.90;;;;;;5051994;28;20032;-84
2021/12/29 12:27:10;;;;;;;23.10;12.90;;;3.70;99.90;;;;;;5055716;28;20492;-84
2021/12/29 12:29:39;;;;;;;21.50;12.95;;;3.70;99.90;;;;;;5055995;28;20021;-84
2021/12/29 12:32:18;;;;;;;21.27;12.00;;;3.70;99.90;;;;;;5057142;28;20029;-84
2021/12/29 12:35:07;;;;;;;20.75;11.88;;;3.80;99.90;;;;;;5055846;28;20033;-84
2021/12/29 12:37:39;;;;;;;21.15;12.48;;;3.70;99.90;;;;;;5057377;28;20397;-84
2021/12/29 12:40:30;;;;;;;22.70;13.00;;;3.70;99.90;;;;;;5055651;28;20025;-84
2021/12/29 12:43:12;;;;;;;21.65;12.63;;;3.70;99.90;;;;;;5048781;28;20048;-83
2021/12/29 12:45:44;;;;;;;23.05;13.52;;;3.70;99.90;;;;;;5064579;28;20028;-84
2021/12/29 12:48:15;;;;;;;20.85;11.55;;;3.70;99.90;;;;;;5075315;28;20024;-84
2021/12/29 12:50:43;;;;;;;16.77;10.37;;;3.70;99.90;;;;;;5076195;28;20029;-84
2021/12/29 12:53:09;;;;;;;16.15;10.43;;;3.70;99.90;;;;;;5077418;28;20064;-84